Hillham, Indiana
Current Conditions -  °F | °C
As of 1:55 PM on Thursday 23 Oct 2014 (Local Time) from KHNB Reporting Station
Clear Clear  
Wind Chill: 57°   Ceiling: Unl
Heat Index: 57°   Visibility: 9mi
Dew Point: 43°   Wind: 5mph
Humidity: 59%   Direction: 110°ESE
Pressure: 30.21"   Gusts: NA
Location:  38.4941°N, 86.6155°W
Report Text: KHNB 231755Z AUTO 11004KT 9SM CLR 14/06 A3021 RMK AO1 10140 20020 57017
Loading
Personal Weather Stations






























Interactive Weather Map
Tropical Storm Tracking
New forecast layout! Learn more

10-Day Weather Forecast

Advertisements
Track Severe Weather on mobile